sensor_id;sensor_type;location;lat;lon;timestamp;P1;durP1;ratioP1;P2;durP2;ratioP2
41141;SDS011;63666;52.284;20.890;2023-04-05T00:01:13;10.80;;;8.50;;
41141;SDS011;63666;52.284;20.890;2023-04-05T00:03:49;10.60;;;9.00;;
41141;SDS011;63666;52.284;20.890;2023-04-05T00:06:27;9.80;;;8.20;;
41141;SDS011;63666;52.284;20.890;2023-04-05T00:09:03;10.30;;;9.20;;
41141;SDS011;63666;52.284;20.890;2023-04-05T00:11:37;10.30;;;8.40;;
41141;SDS011;63666;52.284;20.890;2023-04-05T00:14:14;10.50;;;8.80;;
41141;SDS011;63666;52.284;20.890;2023-04-05T00:16:48;10.50;;;8.40;;
41141;SDS011;63666;52.284;20.890;2023-04-05T00:19:25;10.90;;;8.90;;
41141;SDS011;63666;52.284;20.890;2023-04-05T00:22:04;10.70;;;8.90;;
41141;SDS011;63666;52.284;20.890;2023-04-05T00:24:40;10.20;;;8.60;;
41141;SDS011;63666;52.284;20.890;2023-04-05T00:27:17;10.40;;;8.80;;
41141;SDS011;63666;52.284;20.890;2023-04-05T00:29:53;10.80;;;9.60;;
41141;SDS011;63666;52.284;20.890;2023-04-05T00:32:27;10.80;;;9.10;;
41141;SDS011;63666;52.284;20.890;2023-04-05T00:35:03;10.50;;;8.70;;
41141;SDS011;63666;52.284;20.890;2023-04-05T00:37:41;10.30;;;9.10;;
41141;SDS011;63666;52.284;20.890;2023-04-05T00:40:17;11.50;;;8.90;;
41141;SDS011;63666;52.284;20.890;2023-04-05T00:42:51;10.90;;;9.20;;
41141;SDS011;63666;52.284;20.890;2023-04-05T00:45:25;10.40;;;8.80;;
41141;SDS011;63666;52.284;20.890;2023-04-05T00:48:05;10.70;;;8.80;;
41141;SDS011;63666;52.284;20.890;2023-04-05T00:50:44;10.10;;;8.40;;
41141;SDS011;63666;52.284;20.890;2023-04-05T00:53:26;10.60;;;9.10;;
41141;SDS011;63666;52.284;20.890;2023-04-05T00:56:06;10.20;;;9.00;;
41141;SDS011;63666;52.284;20.890;2023-04-05T00:58:43;9.90;;;8.70;;
41141;SDS011;63666;52.284;20.890;2023-04-05T01:01:20;10.20;;;8.90;;
41141;SDS011;63666;52.284;20.890;2023-04-05T01:04:01;10.80;;;8.50;;
41141;SDS011;63666;52.284;20.890;2023-04-05T01:06:57;11.70;;;9.40;;
41141;SDS011;63666;52.284;20.890;2023-04-05T01:09:44;11.30;;;9.20;;
41141;SDS011;63666;52.284;20.890;2023-04-05T01:12:26;11.10;;;9.10;;
41141;SDS011;63666;52.284;20.890;2023-04-05T01:15:06;10.50;;;9.20;;
41141;SDS011;63666;52.284;20.890;2023-04-05T01:17:44;11.00;;;8.60;;
41141;SDS011;63666;52.284;20.890;2023-04-05T01:20:20;10.50;;;9.40;;
41141;SDS011;63666;52.284;20.890;2023-04-05T01:23:09;10.40;;;8.90;;
41141;SDS011;63666;52.284;20.890;2023-04-05T01:26:12;10.40;;;8.70;;
41141;SDS011;63666;52.284;20.890;2023-04-05T01:32:33;10.30;;;9.00;;
41141;SDS011;63666;52.284;20.890;2023-04-05T01:35:17;10.20;;;8.90;;
41141;SDS011;63666;52.284;20.890;2023-04-05T01:38:01;10.40;;;9.00;;
41141;SDS011;63666;52.284;20.890;2023-04-05T01:40:37;10.80;;;9.00;;
41141;SDS011;63666;52.284;20.890;2023-04-05T01:43:22;11.10;;;9.40;;
41141;SDS011;63666;52.284;20.890;2023-04-05T01:45:56;11.10;;;9.10;;
41141;SDS011;63666;52.284;20.890;2023-04-05T01:48:33;10.70;;;9.00;;
41141;SDS011;63666;52.284;20.890;2023-04-05T01:51:07;10.40;;;9.30;;
41141;SDS011;63666;52.284;20.890;2023-04-05T01:53:42;10.70;;;8.90;;
41141;SDS011;63666;52.284;20.890;2023-04-05T01:56:16;10.60;;;9.00;;
41141;SDS011;63666;52.284;20.890;2023-04-05T01:58:53;10.60;;;8.80;;
41141;SDS011;63666;52.284;20.890;2023-04-05T02:01:28;11.60;;;9.20;;
41141;SDS011;63666;52.284;20.890;2023-04-05T02:04:04;11.70;;;9.30;;
41141;SDS011;63666;52.284;20.890;2023-04-05T02:06:41;10.60;;;8.70;;
41141;SDS011;63666;52.284;20.890;2023-04-05T02:09:15;10.60;;;9.30;;
41141;SDS011;63666;52.284;20.890;2023-04-05T02:11:49;11.00;;;8.80;;
41141;SDS011;63666;52.284;20.890;2023-04-05T02:14:26;10.30;;;8.70;;
41141;SDS011;63666;52.284;20.890;2023-04-05T02:17:01;10.30;;;9.00;;
41141;SDS011;63666;52.284;20.890;2023-04-05T02:19:35;11.00;;;9.20;;
41141;SDS011;63666;52.284;20.890;2023-04-05T02:22:12;10.20;;;8.70;;
41141;SDS011;63666;52.284;20.890;2023-04-05T02:24:46;10.10;;;8.90;;
41141;SDS011;63666;52.284;20.890;2023-04-05T02:27:20;10.80;;;8.90;;
41141;SDS011;63666;52.284;20.890;2023-04-05T02:29:55;10.60;;;8.60;;
41141;SDS011;63666;52.284;20.890;2023-04-05T02:32:32;10.20;;;8.80;;
41141;SDS011;63666;52.284;20.890;2023-04-05T02:35:09;10.00;;;8.80;;
41141;SDS011;63666;52.284;20.890;2023-04-05T02:37:48;10.40;;;8.80;;
41141;SDS011;63666;52.284;20.890;2023-04-05T02:40:23;9.90;;;8.60;;
41141;SDS011;63666;52.284;20.890;2023-04-05T02:42:59;10.10;;;8.40;;
41141;SDS011;63666;52.284;20.890;2023-04-05T02:45:33;10.10;;;8.50;;
41141;SDS011;63666;52.284;20.890;2023-04-05T02:48:09;10.50;;;8.70;;
41141;SDS011;63666;52.284;20.890;2023-04-05T02:50:47;10.80;;;9.10;;
41141;SDS011;63666;52.284;20.890;2023-04-05T02:53:21;10.60;;;8.50;;
41141;SDS011;63666;52.284;20.890;2023-04-05T02:55:57;10.30;;;8.50;;
41141;SDS011;63666;52.284;20.890;2023-04-05T02:58:33;10.90;;;8.90;;
41141;SDS011;63666;52.284;20.890;2023-04-05T03:01:09;9.90;;;8.50;;
41141;SDS011;63666;52.284;20.890;2023-04-05T03:03:44;10.10;;;8.60;;
41141;SDS011;63666;52.284;20.890;2023-04-05T03:06:23;9.90;;;8.40;;
41141;SDS011;63666;52.284;20.890;2023-04-05T03:08:58;9.90;;;8.50;;
41141;SDS011;63666;52.284;20.890;2023-04-05T03:11:34;10.20;;;8.30;;
41141;SDS011;63666;52.284;20.890;2023-04-05T03:14:09;10.30;;;8.60;;
41141;SDS011;63666;52.284;20.890;2023-04-05T03:16:46;10.10;;;8.40;;
41141;SDS011;63666;52.284;20.890;2023-04-05T03:19:21;10.40;;;8.20;;
41141;SDS011;63666;52.284;20.890;2023-04-05T03:21:57;10.70;;;8.80;;
41141;SDS011;63666;52.284;20.890;2023-04-05T03:24:33;10.00;;;8.20;;
41141;SDS011;63666;52.284;20.890;2023-04-05T03:27:08;10.00;;;8.50;;
41141;SDS011;63666;52.284;20.890;2023-04-05T03:29:46;10.10;;;8.50;;
41141;SDS011;63666;52.284;20.890;2023-04-05T03:32:22;10.50;;;8.40;;
41141;SDS011;63666;52.284;20.890;2023-04-05T03:34:59;11.10;;;8.60;;
41141;SDS011;63666;52.284;20.890;2023-04-05T03:37:37;11.10;;;8.70;;
41141;SDS011;63666;52.284;20.890;2023-04-05T03:40:15;10.50;;;8.40;;
41141;SDS011;63666;52.284;20.890;2023-04-05T03:42:52;10.90;;;8.60;;
41141;SDS011;63666;52.284;20.890;2023-04-05T03:45:28;10.40;;;8.90;;
41141;SDS011;63666;52.284;20.890;2023-04-05T03:48:08;10.70;;;8.50;;
41141;SDS011;63666;52.284;20.890;2023-04-05T03:50:45;10.80;;;8.80;;
41141;SDS011;63666;52.284;20.890;2023-04-05T03:53:20;9.60;;;8.00;;
41141;SDS011;63666;52.284;20.890;2023-04-05T03:55:54;11.10;;;8.10;;
41141;SDS011;63666;52.284;20.890;2023-04-05T03:58:32;11.40;;;8.70;;
41141;SDS011;63666;52.284;20.890;2023-04-05T04:01:07;11.20;;;8.70;;
41141;SDS011;63666;52.284;20.890;2023-04-05T04:03:45;10.70;;;8.60;;
41141;SDS011;63666;52.284;20.890;2023-04-05T04:06:21;10.60;;;8.50;;
41141;SDS011;63666;52.284;20.890;2023-04-05T04:09:02;10.30;;;8.50;;
41141;SDS011;63666;52.284;20.890;2023-04-05T04:11:37;10.30;;;8.30;;
41141;SDS011;63666;52.284;20.890;2023-04-05T04:14:11;10.80;;;8.40;;
41141;SDS011;63666;52.284;20.890;2023-04-05T04:16:47;10.00;;;8.30;;
41141;SDS011;63666;52.284;20.890;2023-04-05T04:19:23;10.30;;;8.40;;
41141;SDS011;63666;52.284;20.890;2023-04-05T04:22:03;10.60;;;8.00;;
41141;SDS011;63666;52.284;20.890;2023-04-05T04:24:40;10.30;;;8.10;;
41141;SDS011;63666;52.284;20.890;2023-04-05T04:27:16;10.50;;;8.40;;
41141;SDS011;63666;52.284;20.890;2023-04-05T04:29:52;10.10;;;8.10;;
41141;SDS011;63666;52.284;20.890;2023-04-05T04:32:34;9.80;;;7.90;;
41141;SDS011;63666;52.284;20.890;2023-04-05T04:35:25;9.40;;;7.90;;
41141;SDS011;63666;52.284;20.890;2023-04-05T04:38:05;10.70;;;8.60;;
41141;SDS011;63666;52.284;20.890;2023-04-05T04:40:40;10.60;;;8.50;;
41141;SDS011;63666;52.284;20.890;2023-04-05T04:43:20;10.40;;;8.20;;
41141;SDS011;63666;52.284;20.890;2023-04-05T04:45:58;10.50;;;8.10;;
41141;SDS011;63666;52.284;20.890;2023-04-05T04:48:37;10.30;;;8.70;;
41141;SDS011;63666;52.284;20.890;2023-04-05T04:51:14;9.50;;;7.90;;
41141;SDS011;63666;52.284;20.890;2023-04-05T04:53:49;10.50;;;8.20;;
41141;SDS011;63666;52.284;20.890;2023-04-05T04:56:27;10.80;;;8.40;;
41141;SDS011;63666;52.284;20.890;2023-04-05T04:59:02;10.40;;;8.50;;
41141;SDS011;63666;52.284;20.890;2023-04-05T05:01:39;10.40;;;8.10;;
41141;SDS011;63666;52.284;20.890;2023-04-05T05:04:14;10.10;;;8.10;;
41141;SDS011;63666;52.284;20.890;2023-04-05T05:06:53;10.60;;;8.70;;
41141;SDS011;63666;52.284;20.890;2023-04-05T05:09:29;10.60;;;8.10;;
41141;SDS011;63666;52.284;20.890;2023-04-05T05:12:07;10.40;;;9.00;;
41141;SDS011;63666;52.284;20.890;2023-04-05T05:14:40;9.80;;;8.30;;
41141;SDS011;63666;52.284;20.890;2023-04-05T05:17:16;10.30;;;8.60;;
41141;SDS011;63666;52.284;20.890;2023-04-05T05:19:51;10.30;;;8.30;;
41141;SDS011;63666;52.284;20.890;2023-04-05T05:22:26;10.50;;;8.50;;
41141;SDS011;63666;52.284;20.890;2023-04-05T05:25:04;10.00;;;8.20;;
41141;SDS011;63666;52.284;20.890;2023-04-05T05:27:48;10.60;;;8.20;;
41141;SDS011;63666;52.284;20.890;2023-04-05T05:30:22;10.50;;;8.40;;
41141;SDS011;63666;52.284;20.890;2023-04-05T05:32:57;10.40;;;8.40;;
41141;SDS011;63666;52.284;20.890;2023-04-05T05:35:37;9.70;;;8.30;;
41141;SDS011;63666;52.284;20.890;2023-04-05T05:38:13;10.20;;;8.10;;
41141;SDS011;63666;52.284;20.890;2023-04-05T05:40:48;10.00;;;8.40;;
41141;SDS011;63666;52.284;20.890;2023-04-05T05:43:30;10.90;;;8.40;;
41141;SDS011;63666;52.284;20.890;2023-04-05T05:46:05;10.90;;;8.60;;
41141;SDS011;63666;52.284;20.890;2023-04-05T05:48:41;10.60;;;8.80;;
41141;SDS011;63666;52.284;20.890;2023-04-05T05:51:15;10.70;;;8.50;;
41141;SDS011;63666;52.284;20.890;2023-04-05T05:53:51;10.50;;;8.40;;
41141;SDS011;63666;52.284;20.890;2023-04-05T05:56:25;11.60;;;8.60;;
41141;SDS011;63666;52.284;20.890;2023-04-05T05:58:59;10.00;;;8.50;;
41141;SDS011;63666;52.284;20.890;2023-04-05T06:01:37;10.40;;;8.80;;
41141;SDS011;63666;52.284;20.890;2023-04-05T06:04:18;10.00;;;8.40;;
41141;SDS011;63666;52.284;20.890;2023-04-05T06:06:54;10.30;;;8.70;;
41141;SDS011;63666;52.284;20.890;2023-04-05T06:09:28;10.40;;;8.70;;
41141;SDS011;63666;52.284;20.890;2023-04-05T06:12:05;10.90;;;8.80;;
41141;SDS011;63666;52.284;20.890;2023-04-05T06:14:42;10.60;;;9.00;;
41141;SDS011;63666;52.284;20.890;2023-04-05T06:17:16;11.70;;;9.00;;
41141;SDS011;63666;52.284;20.890;2023-04-05T06:19:52;10.70;;;8.80;;
41141;SDS011;63666;52.284;20.890;2023-04-05T06:22:27;10.60;;;8.10;;
41141;SDS011;63666;52.284;20.890;2023-04-05T06:25:02;10.30;;;8.70;;
41141;SDS011;63666;52.284;20.890;2023-04-05T06:27:38;10.80;;;8.50;;
41141;SDS011;63666;52.284;20.890;2023-04-05T06:30:15;11.00;;;8.90;;
41141;SDS011;63666;52.284;20.890;2023-04-05T06:32:50;10.60;;;8.70;;
41141;SDS011;63666;52.284;20.890;2023-04-05T06:35:26;11.70;;;8.70;;
41141;SDS011;63666;52.284;20.890;2023-04-05T06:38:00;11.00;;;8.60;;
41141;SDS011;63666;52.284;20.890;2023-04-05T06:40:36;11.70;;;8.30;;
41141;SDS011;63666;52.284;20.890;2023-04-05T06:43:13;11.30;;;9.00;;
41141;SDS011;63666;52.284;20.890;2023-04-05T06:45:47;12.70;;;8.70;;
41141;SDS011;63666;52.284;20.890;2023-04-05T06:48:23;13.40;;;9.60;;
41141;SDS011;63666;52.284;20.890;2023-04-05T06:51:02;11.80;;;9.10;;
41141;SDS011;63666;52.284;20.890;2023-04-05T06:53:41;11.00;;;8.90;;
41141;SDS011;63666;52.284;20.890;2023-04-05T06:56:18;12.80;;;8.90;;
41141;SDS011;63666;52.284;20.890;2023-04-05T06:58:54;12.10;;;9.20;;
41141;SDS011;63666;52.284;20.890;2023-04-05T07:01:29;11.60;;;9.10;;
41141;SDS011;63666;52.284;20.890;2023-04-05T07:04:03;11.90;;;9.20;;
41141;SDS011;63666;52.284;20.890;2023-04-05T07:06:37;12.20;;;9.30;;
41141;SDS011;63666;52.284;20.890;2023-04-05T07:09:11;11.50;;;9.00;;
41141;SDS011;63666;52.284;20.890;2023-04-05T07:11:45;12.50;;;9.60;;
41141;SDS011;63666;52.284;20.890;2023-04-05T07:14:20;13.70;;;9.20;;
41141;SDS011;63666;52.284;20.890;2023-04-05T07:16:57;14.50;;;9.90;;
41141;SDS011;63666;52.284;20.890;2023-04-05T07:19:31;13.20;;;9.60;;
41141;SDS011;63666;52.284;20.890;2023-04-05T07:22:05;12.40;;;9.50;;
41141;SDS011;63666;52.284;20.890;2023-04-05T07:24:41;13.10;;;9.60;;
41141;SDS011;63666;52.284;20.890;2023-04-05T07:27:15;16.40;;;10.40;;
41141;SDS011;63666;52.284;20.890;2023-04-05T07:29:50;14.00;;;10.10;;
41141;SDS011;63666;52.284;20.890;2023-04-05T07:32:29;14.50;;;10.50;;
41141;SDS011;63666;52.284;20.890;2023-04-05T07:35:06;14.50;;;10.30;;
41141;SDS011;63666;52.284;20.890;2023-04-05T07:37:40;14.50;;;10.40;;
41141;SDS011;63666;52.284;20.890;2023-04-05T07:40:18;13.80;;;10.50;;
41141;SDS011;63666;52.284;20.890;2023-04-05T07:42:53;14.20;;;10.40;;
41141;SDS011;63666;52.284;20.890;2023-04-05T07:45:31;13.70;;;10.50;;
41141;SDS011;63666;52.284;20.890;2023-04-05T07:48:06;14.50;;;10.30;;
41141;SDS011;63666;52.284;20.890;2023-04-05T07:50:40;14.20;;;10.40;;
41141;SDS011;63666;52.284;20.890;2023-04-05T07:53:17;14.30;;;10.60;;
41141;SDS011;63666;52.284;20.890;2023-04-05T07:55:53;14.10;;;9.90;;
41141;SDS011;63666;52.284;20.890;2023-04-05T07:58:28;14.80;;;10.00;;
41141;SDS011;63666;52.284;20.890;2023-04-05T08:01:05;14.10;;;9.80;;
41141;SDS011;63666;52.284;20.890;2023-04-05T08:03:41;14.10;;;10.10;;
41141;SDS011;63666;52.284;20.890;2023-04-05T08:06:18;13.80;;;10.00;;
41141;SDS011;63666;52.284;20.890;2023-04-05T08:08:53;12.60;;;9.60;;
41141;SDS011;63666;52.284;20.890;2023-04-05T08:11:26;13.90;;;10.00;;
41141;SDS011;63666;52.284;20.890;2023-04-05T08:14:00;14.10;;;9.70;;
41141;SDS011;63666;52.284;20.890;2023-04-05T08:16:34;12.50;;;9.30;;
41141;SDS011;63666;52.284;20.890;2023-04-05T08:19:09;12.90;;;9.40;;
41141;SDS011;63666;52.284;20.890;2023-04-05T08:21:45;12.20;;;9.50;;
41141;SDS011;63666;52.284;20.890;2023-04-05T08:24:19;13.10;;;9.10;;
41141;SDS011;63666;52.284;20.890;2023-04-05T08:26:53;13.30;;;9.20;;
41141;SDS011;63666;52.284;20.890;2023-04-05T08:29:26;12.00;;;8.90;;
41141;SDS011;63666;52.284;20.890;2023-04-05T08:32:00;11.60;;;9.10;;
41141;SDS011;63666;52.284;20.890;2023-04-05T08:34:35;12.80;;;8.40;;
41141;SDS011;63666;52.284;20.890;2023-04-05T08:37:10;13.00;;;8.70;;
41141;SDS011;63666;52.284;20.890;2023-04-05T08:39:46;11.10;;;8.50;;
41141;SDS011;63666;52.284;20.890;2023-04-05T08:42:31;11.50;;;8.30;;
41141;SDS011;63666;52.284;20.890;2023-04-05T08:45:10;12.20;;;8.30;;
41141;SDS011;63666;52.284;20.890;2023-04-05T08:47:49;11.40;;;8.40;;
41141;SDS011;63666;52.284;20.890;2023-04-05T08:50:27;11.00;;;8.40;;
41141;SDS011;63666;52.284;20.890;2023-04-05T08:53:05;11.20;;;7.90;;
41141;SDS011;63666;52.284;20.890;2023-04-05T08:55:41;11.20;;;8.10;;
41141;SDS011;63666;52.284;20.890;2023-04-05T08:58:21;10.80;;;7.30;;
41141;SDS011;63666;52.284;20.890;2023-04-05T09:00:58;10.90;;;7.80;;
41141;SDS011;63666;52.284;20.890;2023-04-05T09:03:36;9.90;;;7.70;;
41141;SDS011;63666;52.284;20.890;2023-04-05T09:06:14;10.60;;;7.80;;
41141;SDS011;63666;52.284;20.890;2023-04-05T09:08:50;9.80;;;7.00;;
41141;SDS011;63666;52.284;20.890;2023-04-05T09:11:27;10.20;;;7.20;;
41141;SDS011;63666;52.284;20.890;2023-04-05T09:14:05;10.90;;;7.40;;
41141;SDS011;63666;52.284;20.890;2023-04-05T09:16:45;9.00;;;6.70;;
41141;SDS011;63666;52.284;20.890;2023-04-05T09:19:18;9.70;;;7.00;;
41141;SDS011;63666;52.284;20.890;2023-04-05T09:22:02;9.40;;;7.00;;
41141;SDS011;63666;52.284;20.890;2023-04-05T09:24:38;9.90;;;6.50;;
41141;SDS011;63666;52.284;20.890;2023-04-05T09:27:16;9.10;;;6.40;;
41141;SDS011;63666;52.284;20.890;2023-04-05T09:29:51;8.70;;;6.40;;
41141;SDS011;63666;52.284;20.890;2023-04-05T09:32:26;9.30;;;6.50;;
41141;SDS011;63666;52.284;20.890;2023-04-05T09:35:00;9.10;;;6.60;;
41141;SDS011;63666;52.284;20.890;2023-04-05T09:37:35;8.60;;;6.40;;
41141;SDS011;63666;52.284;20.890;2023-04-05T09:40:11;9.00;;;6.40;;
41141;SDS011;63666;52.284;20.890;2023-04-05T09:42:46;8.90;;;6.10;;
41141;SDS011;63666;52.284;20.890;2023-04-05T09:45:22;8.90;;;6.10;;
41141;SDS011;63666;52.284;20.890;2023-04-05T09:48:02;8.80;;;6.10;;
41141;SDS011;63666;52.284;20.890;2023-04-05T09:50:40;8.60;;;5.70;;
41141;SDS011;63666;52.284;20.890;2023-04-05T09:53:13;8.50;;;5.90;;
41141;SDS011;63666;52.284;20.890;2023-04-05T09:55:49;8.90;;;5.90;;
41141;SDS011;63666;52.284;20.890;2023-04-05T09:58:23;8.20;;;5.70;;
41141;SDS011;63666;52.284;20.890;2023-04-05T10:00:58;7.70;;;5.40;;
41141;SDS011;63666;52.284;20.890;2023-04-05T10:03:49;8.20;;;5.70;;
41141;SDS011;63666;52.284;20.890;2023-04-05T10:06:25;8.10;;;5.50;;
41141;SDS011;63666;52.284;20.890;2023-04-05T10:09:10;7.80;;;5.40;;
41141;SDS011;63666;52.284;20.890;2023-04-05T10:11:47;7.50;;;5.00;;
41141;SDS011;63666;52.284;20.890;2023-04-05T10:14:26;7.70;;;5.00;;
41141;SDS011;63666;52.284;20.890;2023-04-05T10:17:11;8.40;;;5.60;;
41141;SDS011;63666;52.284;20.890;2023-04-05T10:19:58;7.40;;;5.00;;
41141;SDS011;63666;52.284;20.890;2023-04-05T10:22:51;7.70;;;4.90;;
41141;SDS011;63666;52.284;20.890;2023-04-05T10:25:43;6.70;;;5.00;;
41141;SDS011;63666;52.284;20.890;2023-04-05T10:28:31;8.80;;;5.00;;
41141;SDS011;63666;52.284;20.890;2023-04-05T10:31:16;7.70;;;5.00;;
41141;SDS011;63666;52.284;20.890;2023-04-05T10:34:09;8.40;;;5.10;;
41141;SDS011;63666;52.284;20.890;2023-04-05T10:36:56;7.90;;;4.70;;
41141;SDS011;63666;52.284;20.890;2023-04-05T10:39:44;7.50;;;5.20;;
41141;SDS011;63666;52.284;20.890;2023-04-05T10:42:25;6.90;;;4.40;;
41141;SDS011;63666;52.284;20.890;2023-04-05T10:45:04;7.40;;;4.60;;
41141;SDS011;63666;52.284;20.890;2023-04-05T10:47:44;6.50;;;4.10;;
41141;SDS011;63666;52.284;20.890;2023-04-05T10:50:23;6.40;;;4.20;;
41141;SDS011;63666;52.284;20.890;2023-04-05T10:53:00;6.40;;;4.40;;
41141;SDS011;63666;52.284;20.890;2023-04-05T10:55:38;7.00;;;4.30;;
41141;SDS011;63666;52.284;20.890;2023-04-05T10:58:16;6.50;;;4.20;;
41141;SDS011;63666;52.284;20.890;2023-04-05T11:00:56;5.90;;;3.90;;
41141;SDS011;63666;52.284;20.890;2023-04-05T11:03:46;6.30;;;4.10;;
41141;SDS011;63666;52.284;20.890;2023-04-05T11:06:29;6.30;;;3.80;;
41141;SDS011;63666;52.284;20.890;2023-04-05T11:09:11;6.40;;;3.50;;
41141;SDS011;63666;52.284;20.890;2023-04-05T11:11:51;6.30;;;3.60;;
41141;SDS011;63666;52.284;20.890;2023-04-05T11:14:35;5.90;;;3.90;;
41141;SDS011;63666;52.284;20.890;2023-04-05T11:17:26;5.90;;;3.60;;
41141;SDS011;63666;52.284;20.890;2023-04-05T11:20:05;5.90;;;4.00;;
41141;SDS011;63666;52.284;20.890;2023-04-05T11:22:57;6.50;;;3.90;;
41141;SDS011;63666;52.284;20.890;2023-04-05T11:25:31;5.70;;;3.70;;
41141;SDS011;63666;52.284;20.890;2023-04-05T11:28:27;5.90;;;3.90;;
41141;SDS011;63666;52.284;20.890;2023-04-05T11:31:17;6.00;;;3.50;;
41141;SDS011;63666;52.284;20.890;2023-04-05T11:33:58;5.60;;;3.60;;
41141;SDS011;63666;52.284;20.890;2023-04-05T11:36:44;6.10;;;3.70;;
41141;SDS011;63666;52.284;20.890;2023-04-05T11:39:27;6.30;;;3.70;;
41141;SDS011;63666;52.284;20.890;2023-04-05T11:42:03;6.20;;;3.90;;
41141;SDS011;63666;52.284;20.890;2023-04-05T11:44:46;6.30;;;3.70;;
41141;SDS011;63666;52.284;20.890;2023-04-05T11:47:25;6.20;;;3.70;;
41141;SDS011;63666;52.284;20.890;2023-04-05T11:50:00;6.00;;;3.50;;
41141;SDS011;63666;52.284;20.890;2023-04-05T11:52:35;5.90;;;3.50;;
41141;SDS011;63666;52.284;20.890;2023-04-05T11:55:10;5.10;;;3.30;;
41141;SDS011;63666;52.284;20.890;2023-04-05T11:57:46;6.10;;;3.60;;
41141;SDS011;63666;52.284;20.890;2023-04-05T12:00:28;6.10;;;3.30;;
41141;SDS011;63666;52.284;20.890;2023-04-05T12:03:04;5.60;;;3.40;;
41141;SDS011;63666;52.284;20.890;2023-04-05T12:05:48;6.30;;;3.60;;
41141;SDS011;63666;52.284;20.890;2023-04-05T12:08:38;6.30;;;3.50;;
41141;SDS011;63666;52.284;20.890;2023-04-05T12:11:13;5.00;;;3.10;;
41141;SDS011;63666;52.284;20.890;2023-04-05T12:13:47;5.30;;;3.20;;
41141;SDS011;63666;52.284;20.890;2023-04-05T12:16:27;5.50;;;3.10;;
41141;SDS011;63666;52.284;20.890;2023-04-05T12:19:01;7.80;;;3.20;;
41141;SDS011;63666;52.284;20.890;2023-04-05T12:21:38;5.50;;;3.40;;
41141;SDS011;63666;52.284;20.890;2023-04-05T12:24:13;4.90;;;2.80;;
41141;SDS011;63666;52.284;20.890;2023-04-05T12:26:49;5.40;;;3.20;;
41141;SDS011;63666;52.284;20.890;2023-04-05T12:29:29;5.20;;;3.30;;
41141;SDS011;63666;52.284;20.890;2023-04-05T12:32:03;5.50;;;3.30;;
41141;SDS011;63666;52.284;20.890;2023-04-05T12:34:46;6.40;;;2.80;;
41141;SDS011;63666;52.284;20.890;2023-04-05T12:37:28;5.10;;;3.00;;
41141;SDS011;63666;52.284;20.890;2023-04-05T12:40:07;5.50;;;3.20;;
41141;SDS011;63666;52.284;20.890;2023-04-05T12:42:45;5.80;;;3.00;;
41141;SDS011;63666;52.284;20.890;2023-04-05T12:45:24;5.30;;;3.10;;
41141;SDS011;63666;52.284;20.890;2023-04-05T12:48:01;5.40;;;2.80;;
41141;SDS011;63666;52.284;20.890;2023-04-05T12:50:43;5.20;;;2.90;;
41141;SDS011;63666;52.284;20.890;2023-04-05T12:53:21;5.10;;;2.90;;
41141;SDS011;63666;52.284;20.890;2023-04-05T12:55:58;5.00;;;3.00;;
41141;SDS011;63666;52.284;20.890;2023-04-05T12:58:36;5.20;;;2.90;;
41141;SDS011;63666;52.284;20.890;2023-04-05T13:01:10;5.10;;;2.90;;
41141;SDS011;63666;52.284;20.890;2023-04-05T13:03:47;4.90;;;2.90;;
41141;SDS011;63666;52.284;20.890;2023-04-05T13:06:38;4.70;;;2.70;;
41141;SDS011;63666;52.284;20.890;2023-04-05T13:09:12;5.20;;;2.70;;
41141;SDS011;63666;52.284;20.890;2023-04-05T13:11:47;5.00;;;2.80;;
41141;SDS011;63666;52.284;20.890;2023-04-05T13:14:24;5.40;;;2.80;;
41141;SDS011;63666;52.284;20.890;2023-04-05T13:16:58;5.40;;;2.70;;
41141;SDS011;63666;52.284;20.890;2023-04-05T13:19:34;5.60;;;3.00;;
41141;SDS011;63666;52.284;20.890;2023-04-05T13:22:08;5.20;;;2.90;;
41141;SDS011;63666;52.284;20.890;2023-04-05T13:24:42;4.80;;;2.70;;
41141;SDS011;63666;52.284;20.890;2023-04-05T13:27:22;4.90;;;2.70;;
41141;SDS011;63666;52.284;20.890;2023-04-05T13:29:57;5.20;;;3.10;;
41141;SDS011;63666;52.284;20.890;2023-04-05T13:32:31;5.40;;;2.80;;
41141;SDS011;63666;52.284;20.890;2023-04-05T13:35:09;5.10;;;2.80;;
41141;SDS011;63666;52.284;20.890;2023-04-05T13:37:45;4.20;;;2.40;;
41141;SDS011;63666;52.284;20.890;2023-04-05T13:40:24;5.40;;;2.60;;
41141;SDS011;63666;52.284;20.890;2023-04-05T13:43:02;5.00;;;2.70;;
41141;SDS011;63666;52.284;20.890;2023-04-05T13:45:38;5.10;;;2.90;;
41141;SDS011;63666;52.284;20.890;2023-04-05T13:48:12;5.60;;;3.10;;
41141;SDS011;63666;52.284;20.890;2023-04-05T13:50:50;4.90;;;2.80;;
41141;SDS011;63666;52.284;20.890;2023-04-05T13:53:31;5.30;;;2.80;;
41141;SDS011;63666;52.284;20.890;2023-04-05T13:56:07;4.70;;;2.40;;
41141;SDS011;63666;52.284;20.890;2023-04-05T13:58:43;4.70;;;2.60;;
41141;SDS011;63666;52.284;20.890;2023-04-05T14:01:18;4.80;;;2.80;;
41141;SDS011;63666;52.284;20.890;2023-04-05T14:03:56;4.90;;;2.70;;
41141;SDS011;63666;52.284;20.890;2023-04-05T14:06:31;6.00;;;2.90;;
41141;SDS011;63666;52.284;20.890;2023-04-05T14:09:04;5.50;;;3.10;;
41141;SDS011;63666;52.284;20.890;2023-04-05T14:11:42;5.00;;;2.70;;
41141;SDS011;63666;52.284;20.890;2023-04-05T14:14:15;5.60;;;3.10;;
41141;SDS011;63666;52.284;20.890;2023-04-05T14:16:58;5.50;;;3.00;;
41141;SDS011;63666;52.284;20.890;2023-04-05T14:19:32;5.10;;;3.00;;
41141;SDS011;63666;52.284;20.890;2023-04-05T14:22:11;5.10;;;2.90;;
41141;SDS011;63666;52.284;20.890;2023-04-05T14:24:47;5.50;;;3.10;;
41141;SDS011;63666;52.284;20.890;2023-04-05T14:27:24;4.50;;;2.80;;
41141;SDS011;63666;52.284;20.890;2023-04-05T14:29:59;5.00;;;2.50;;
41141;SDS011;63666;52.284;20.890;2023-04-05T14:32:35;6.20;;;3.00;;
41141;SDS011;63666;52.284;20.890;2023-04-05T14:35:10;5.30;;;2.80;;
41141;SDS011;63666;52.284;20.890;2023-04-05T14:37:45;4.90;;;2.70;;
41141;SDS011;63666;52.284;20.890;2023-04-05T14:40:23;5.10;;;2.80;;
41141;SDS011;63666;52.284;20.890;2023-04-05T14:42:59;5.70;;;2.80;;
41141;SDS011;63666;52.284;20.890;2023-04-05T14:45:35;5.00;;;2.40;;
41141;SDS011;63666;52.284;20.890;2023-04-05T14:48:16;5.50;;;2.70;;
41141;SDS011;63666;52.284;20.890;2023-04-05T14:50:52;4.60;;;2.60;;
41141;SDS011;63666;52.284;20.890;2023-04-05T14:53:29;5.60;;;2.90;;
41141;SDS011;63666;52.284;20.890;2023-04-05T14:56:09;5.20;;;2.90;;
41141;SDS011;63666;52.284;20.890;2023-04-05T14:58:43;5.40;;;2.60;;
41141;SDS011;63666;52.284;20.890;2023-04-05T15:01:16;5.30;;;2.80;;
41141;SDS011;63666;52.284;20.890;2023-04-05T15:03:53;5.90;;;2.60;;
41141;SDS011;63666;52.284;20.890;2023-04-05T15:06:31;5.90;;;2.90;;
41141;SDS011;63666;52.284;20.890;2023-04-05T15:09:09;5.40;;;2.40;;
41141;SDS011;63666;52.284;20.890;2023-04-05T15:11:44;5.50;;;2.80;;
41141;SDS011;63666;52.284;20.890;2023-04-05T15:14:18;5.30;;;2.60;;
41141;SDS011;63666;52.284;20.890;2023-04-05T15:17:02;5.10;;;2.80;;
41141;SDS011;63666;52.284;20.890;2023-04-05T15:19:37;5.00;;;2.80;;
41141;SDS011;63666;52.284;20.890;2023-04-05T15:22:11;4.90;;;2.50;;
41141;SDS011;63666;52.284;20.890;2023-04-05T15:24:49;5.10;;;2.80;;
41141;SDS011;63666;52.284;20.890;2023-04-05T15:27:22;5.20;;;2.50;;
41141;SDS011;63666;52.284;20.890;2023-04-05T15:30:04;5.70;;;2.60;;